EGPH/EDI METAR and TAF weather

Enter ICAO airport designator
Station Type Date Time Source
EGPH METAR 2023/01/30 11:20 UTC NOAA

EGPH 301120Z 26008KT CAVOK 08/03 Q1020


Station Type Date Time Source
EGPH Decoded METAR 2023/01/30 11:20 UTC NOAA

Edinburgh Airport, United Kingdom (EGPH) 55-57N 003-21W 0M
Jan 30, 2023 - 06:20 AM EST / 2023.01.30 1120 UTC
Wind: from the W (260 degrees) at 9 MPH (8 KT):0
Visibility: greater than 7 mile(s):0
Temperature: 46 F (8 C)
Dew Point: 37 F (3 C)
Relative Humidity: 70%
Pressure (altimeter): 30.12 in. Hg (1020 hPa)
ob: EGPH 301120Z 26008KT CAVOK 08/03 Q1020
cycle: 11

Station Type Date Time Source
EGPH TAF 2023/01/30 12:09 UTC NOAA

TAF EGPH 301055Z 3012/3112 25009KT 9999 FEW040
BECMG 3020/3023 25015G25KT
TEMPO 3020/3103 BKN010 PROB40
TEMPO 3021/3103 6000 RA BKN008
TEMPO 3023/3112 26023G35KT
TEMPO 3106/3112 6000 SHRA BKN012 PROB30
TEMPO 3106/3112 4000 SHGS

Example: see airport list